Sacramento / Mc Clellan, CA

3:26 AM PST on November 22, 2017 (GMT -0800)
McClellan

Weather History for KMCC - April, 2014

Change the Weather History Date:

Saturday, April 19, 2014

  Actual Average (KMHR) Record (KMHR)
Temperature  
Mean Temperature 62 °F -  
Max Temperature 75 °F 67 °F 87 °F (2009)
Min Temperature 50 °F 42 °F 37 °F (2003)
Degree Days  
Heating Degree Days 2    
Growing Degree Days 12 (Base 50)    
Moisture  
Dew Point 46 °F    
Average Humidity 60    
Maximum Humidity 88    
Minimum Humidity 25    
Precipitation  
Precipitation 0.00 in - - ()
Sea Level Pressure  
Sea Level Pressure 30.00 in    
Wind  
Wind Speed 10 mph (SSE)    
Max Wind Speed 15 mph    
Max Gust Speed 20 mph    
Visibility 10 miles    
Events      
Averages and records for this station are not official NWS values.
T = Trace of Precipitation, MM = Missing Value Source: NWS Daily Summary

Daily Weather History Graph

Daily Weather History Graph

Search for Another Location

Airport or City:

Trip Planner

Search our weather history database for the weather conditions in past years. The results will help you decide how hot, cold, wet, or windy it might be!

Date:

Astronomy

Apr. 19, 2014 Rise Set
Actual Time 6:23 AM PDT 7:46 PM PDT
Civil Twilight 5:55 AM PDT 8:14 PM PDT
Nautical Twilight 5:22 AM PDT 8:47 PM PDT
Astronomical Twilight 4:47 AM PDT 9:22 PM PDT
Moon No Moon Rise 9:48 AM PDT (4/19)
Length of Visible Light 14h 18m
Length of Day
13h 22m
Waning Gibbous, 77% of the Moon is Illuminated
Apr 19
Waning Gibbous
Apr 22
Last Quarter
Apr 28
New
May 6
First Quarter
May 14
Full

Hourly Weather History & Observations

Time (PDT) Temp. Dew Point Humidity Pressure Visibility Wind Dir Wind Speed Gust Speed Precip Events Conditions
12:15 AM 59.0 °F 46.4 °F 63% 29.89 in 10.0 mi South 10.4 mph - N/A   Clear
12:35 AM 59.0 °F 44.6 °F 59% 29.89 in 10.0 mi South 8.1 mph - N/A   Clear
12:55 AM 57.2 °F 46.4 °F 67% 29.89 in 10.0 mi SSE 6.9 mph - N/A   Clear
1:15 AM 55.4 °F 44.6 °F 67% 29.89 in 10.0 mi SSE 8.1 mph - N/A   Clear
1:35 AM 55.4 °F 46.4 °F 72% 29.90 in 10.0 mi SSE 8.1 mph - N/A   Clear
1:55 AM 55.4 °F 46.4 °F 72% 29.89 in 10.0 mi SSE 9.2 mph - N/A   Clear
2:15 AM 55.4 °F 46.4 °F 72% 29.90 in 10.0 mi SSE 8.1 mph - N/A   Clear
2:35 AM 55.4 °F 46.4 °F 72% 29.89 in 10.0 mi SE 8.1 mph - N/A   Clear
2:55 AM 55.4 °F 46.4 °F 72% 29.90 in 10.0 mi SSE 6.9 mph - N/A   Clear
3:15 AM 53.6 °F 44.6 °F 72% 29.91 in 10.0 mi SSE 9.2 mph - N/A   Clear
3:35 AM 53.6 °F 46.4 °F 77% 29.91 in 10.0 mi SSE 9.2 mph - N/A   Clear
3:55 AM 53.6 °F 46.4 °F 77% 29.91 in 10.0 mi SSE 10.4 mph - N/A   Clear
4:15 AM 53.6 °F 46.4 °F 77% 29.92 in 10.0 mi SSE 11.5 mph - N/A   Clear
4:35 AM 53.6 °F 44.6 °F 72% 29.92 in 10.0 mi SSE 9.2 mph - N/A   Clear
4:55 AM 53.6 °F 44.6 °F 72% 29.92 in 10.0 mi SSE 12.7 mph - N/A   Clear
5:15 AM 53.6 °F 44.6 °F 72% 29.93 in 10.0 mi SSE 11.5 mph - N/A   Clear
5:35 AM 51.8 °F 44.6 °F 76% 29.93 in 10.0 mi SSE 10.4 mph - N/A   Clear
5:55 AM 50.0 °F 44.6 °F 82% 29.94 in 10.0 mi SSE 9.2 mph - N/A   Clear
6:15 AM 50.0 °F 44.6 °F 82% 29.95 in 10.0 mi SSE 10.4 mph - N/A   Clear
6:35 AM 50.0 °F 44.6 °F 82% 29.95 in 8.0 mi SE 10.4 mph - N/A   Clear
6:55 AM 50.0 °F 44.6 °F 82% 29.96 in 8.0 mi SSE 11.5 mph - N/A   Clear
7:15 AM 50.0 °F 44.6 °F 82% 29.97 in 8.0 mi SE 12.7 mph - N/A   Clear
7:35 AM 50.0 °F 44.6 °F 82% 29.99 in 8.0 mi SSE 11.5 mph 16.1 mph N/A   Clear
7:55 AM 51.8 °F 44.6 °F 76% 29.99 in 8.0 mi SSE 11.5 mph 19.6 mph N/A   Clear
8:15 AM 53.6 °F 46.4 °F 77% 30.00 in 9.0 mi SSE 15.0 mph - N/A   Clear
8:35 AM 55.4 °F 44.6 °F 67% 30.00 in 9.0 mi SSE 13.8 mph - N/A   Clear
8:55 AM 55.4 °F 44.6 °F 67% 30.01 in 9.0 mi SSE 13.8 mph 18.4 mph N/A   Clear
9:15 AM 57.2 °F 44.6 °F 63% 30.02 in 9.0 mi SSE 12.7 mph - N/A   Clear
9:35 AM 57.2 °F 46.4 °F 67% 30.02 in 9.0 mi SSE 12.7 mph 18.4 mph N/A   Clear
9:55 AM 59.0 °F 46.4 °F 63% 30.02 in 9.0 mi SSE 11.5 mph - N/A   Clear
10:15 AM 60.8 °F 46.4 °F 59% 30.03 in 10.0 mi SSE 13.8 mph 17.3 mph N/A   Clear
10:35 AM 62.6 °F 44.6 °F 52% 30.03 in 10.0 mi SSE 11.5 mph 18.4 mph N/A   Clear
10:55 AM 64.4 °F 46.4 °F 52% 30.03 in 10.0 mi South 11.5 mph - N/A   Clear
11:15 AM 64.4 °F 44.6 °F 49% 30.04 in 10.0 mi South 11.5 mph 18.4 mph N/A   Clear
11:35 AM 66.2 °F 44.6 °F 46% 30.04 in 10.0 mi SSE 13.8 mph - N/A   Clear
11:55 AM 66.2 °F 42.8 °F 43% 30.04 in 10.0 mi South 11.5 mph 16.1 mph N/A   Clear
12:15 PM 68.0 °F 42.8 °F 40% 30.04 in 10.0 mi SSE 12.7 mph 17.3 mph N/A   Clear
12:35 PM 68.0 °F 42.8 °F 40% 30.04 in 10.0 mi SE 10.4 mph 18.4 mph N/A   Clear
12:55 PM 71.6 °F 41.0 °F 33% 30.03 in 10.0 mi SSE 12.7 mph - N/A   Clear
1:15 PM 71.6 °F 41.0 °F 33% 30.03 in 10.0 mi South 9.2 mph - N/A   Clear
1:35 PM 73.4 °F 41.0 °F 31% 30.03 in 10.0 mi South 9.2 mph - N/A   Clear
1:55 PM 73.4 °F 39.2 °F 29% 30.03 in 10.0 mi SSE 10.4 mph 16.1 mph N/A   Clear
2:15 PM 73.4 °F 39.2 °F 29% 30.03 in 10.0 mi South 10.4 mph 17.3 mph N/A   Clear
2:35 PM 75.2 °F 37.4 °F 25% 30.03 in 10.0 mi South 9.2 mph 17.3 mph N/A   Clear
2:55 PM 75.2 °F 37.4 °F 25% 30.02 in 10.0 mi SSE 11.5 mph 17.3 mph N/A   Clear
3:15 PM 75.2 °F 39.2 °F 27% 30.02 in 10.0 mi SSE 10.4 mph - N/A   Clear
3:35 PM 75.2 °F 41.0 °F 29% 30.02 in 10.0 mi South 11.5 mph - N/A   Clear
3:55 PM 75.2 °F 41.0 °F 29% 30.02 in 10.0 mi South 10.4 mph - N/A   Clear
4:15 PM 75.2 °F 41.0 °F 29% 30.02 in 10.0 mi SSW 8.1 mph - N/A   Clear
4:35 PM 75.2 °F 44.6 °F 34% 30.01 in 10.0 mi South 11.5 mph - N/A   Clear
4:55 PM 75.2 °F 44.6 °F 34% 30.01 in 10.0 mi South 9.2 mph - N/A   Clear
5:15 PM 75.2 °F 44.6 °F 34% 30.01 in 10.0 mi South 11.5 mph - N/A   Clear
5:35 PM 75.2 °F 46.4 °F 36% 30.01 in 10.0 mi South 12.7 mph - N/A   Clear
5:55 PM 73.4 °F 48.2 °F 41% 30.01 in 10.0 mi South 12.7 mph 16.1 mph N/A   Clear
6:15 PM 71.6 °F 50.0 °F 46% 30.02 in 10.0 mi SSE 12.7 mph - N/A   Clear
6:35 PM 69.8 °F 50.0 °F 49% 30.02 in 10.0 mi South 15.0 mph - N/A   Clear
6:55 PM 68.0 °F 50.0 °F 52% 30.02 in 10.0 mi South 10.4 mph - N/A   Clear
7:15 PM 66.2 °F 50.0 °F 56% 30.03 in 10.0 mi SSE 11.5 mph - N/A   Clear
7:35 PM 64.4 °F 50.0 °F 59% 30.03 in 10.0 mi South 10.4 mph - N/A   Clear
7:55 PM 64.4 °F 50.0 °F 59% 30.04 in 10.0 mi SSE 8.1 mph - N/A   Clear
8:15 PM 62.6 °F 51.8 °F 68% 30.05 in 10.0 mi South 11.5 mph - N/A   Clear
8:35 PM 60.8 °F 51.8 °F 72% 30.05 in 10.0 mi South 10.4 mph - N/A   Clear
8:55 PM 59.0 °F 51.8 °F 77% 30.07 in 10.0 mi SSE 8.1 mph - N/A   Clear
9:15 PM 59.0 °F 51.8 °F 77% 30.07 in 10.0 mi South 8.1 mph - N/A   Clear
9:35 PM 57.2 °F 51.8 °F 82% 30.08 in 10.0 mi SSE 6.9 mph - N/A   Unknown
9:55 PM 59.0 °F 51.8 °F 77% 30.09 in 10.0 mi SSE 8.1 mph - N/A   Clear
10:15 PM 57.2 °F 51.8 °F 82% 30.09 in 10.0 mi SE 8.1 mph - N/A   Clear
10:35 PM 57.2 °F 51.8 °F 82% 30.09 in 10.0 mi SE 9.2 mph - N/A   Clear
10:55 PM 57.2 °F 51.8 °F 82% 30.10 in 10.0 mi SE 8.1 mph - N/A   Clear
11:15 PM 57.2 °F 51.8 °F 82% 30.10 in 10.0 mi SE 9.2 mph - N/A   Clear
11:35 PM 57.2 °F 51.8 °F 82% 30.10 in 10.0 mi SE 6.9 mph - N/A   Clear
11:55 PM 55.4 °F 51.8 °F 88% 30.10 in 10.0 mi SE 8.1 mph - N/A   Clear